sensor_id;sensor_type;location;lat;lon;timestamp;temperature;humidity
41630;DHT22;27322;49.488;8.480;2022-11-20T00:01:21;5.80;99.90
41630;DHT22;27322;49.488;8.480;2022-11-20T00:03:47;5.80;99.90
41630;DHT22;27322;49.488;8.480;2022-11-20T00:06:15;5.80;99.90
41630;DHT22;27322;49.488;8.480;2022-11-20T00:08:41;5.80;99.90
41630;DHT22;27322;49.488;8.480;2022-11-20T00:11:11;5.80;99.90
41630;DHT22;27322;49.488;8.480;2022-11-20T00:13:40;5.90;99.90
41630;DHT22;27322;49.488;8.480;2022-11-20T00:16:08;5.80;99.90
41630;DHT22;27322;49.488;8.480;2022-11-20T00:18:34;5.80;99.90
41630;DHT22;27322;49.488;8.480;2022-11-20T00:21:04;5.80;99.90
41630;DHT22;27322;49.488;8.480;2022-11-20T00:23:30;5.90;99.90
41630;DHT22;27322;49.488;8.480;2022-11-20T00:25:56;5.90;99.90
41630;DHT22;27322;49.488;8.480;2022-11-20T00:28:22;5.90;99.90
41630;DHT22;27322;49.488;8.480;2022-11-20T00:30:47;5.90;99.90
41630;DHT22;27322;49.488;8.480;2022-11-20T00:33:13;5.90;99.90
41630;DHT22;27322;49.488;8.480;2022-11-20T00:35:39;5.90;99.90
41630;DHT22;27322;49.488;8.480;2022-11-20T00:38:04;5.90;99.90
41630;DHT22;27322;49.488;8.480;2022-11-20T00:40:30;5.90;99.90
41630;DHT22;27322;49.488;8.480;2022-11-20T00:42:55;5.90;99.90
41630;DHT22;27322;49.488;8.480;2022-11-20T00:45:21;5.90;99.90
41630;DHT22;27322;49.488;8.480;2022-11-20T00:47:46;5.90;99.90
41630;DHT22;27322;49.488;8.480;2022-11-20T00:50:12;5.90;99.90
41630;DHT22;27322;49.488;8.480;2022-11-20T00:52:38;5.90;99.90
41630;DHT22;27322;49.488;8.480;2022-11-20T00:55:03;5.90;99.90
41630;DHT22;27322;49.488;8.480;2022-11-20T00:57:29;5.90;99.90
41630;DHT22;27322;49.488;8.480;2022-11-20T00:59:55;5.90;99.90
41630;DHT22;27322;49.488;8.480;2022-11-20T01:02:21;5.90;99.90
41630;DHT22;27322;49.488;8.480;2022-11-20T01:04:47;5.90;99.90
41630;DHT22;27322;49.488;8.480;2022-11-20T01:07:12;5.90;99.90
41630;DHT22;27322;49.488;8.480;2022-11-20T01:09:38;5.90;99.90
41630;DHT22;27322;49.488;8.480;2022-11-20T01:12:04;5.90;99.90
41630;DHT22;27322;49.488;8.480;2022-11-20T01:14:29;6.00;99.90
41630;DHT22;27322;49.488;8.480;2022-11-20T01:16:55;6.00;99.90
41630;DHT22;27322;49.488;8.480;2022-11-20T01:19:22;6.00;99.90
41630;DHT22;27322;49.488;8.480;2022-11-20T01:21:50;6.00;99.90
41630;DHT22;27322;49.488;8.480;2022-11-20T01:24:18;6.00;99.90
41630;DHT22;27322;49.488;8.480;2022-11-20T01:26:47;6.00;99.90
41630;DHT22;27322;49.488;8.480;2022-11-20T01:29:23;6.00;99.90
41630;DHT22;27322;49.488;8.480;2022-11-20T01:31:49;6.00;99.90
41630;DHT22;27322;49.488;8.480;2022-11-20T01:34:19;6.00;99.90
41630;DHT22;27322;49.488;8.480;2022-11-20T01:36:45;5.90;99.90
41630;DHT22;27322;49.488;8.480;2022-11-20T01:39:14;6.00;99.90
41630;DHT22;27322;49.488;8.480;2022-11-20T01:41:41;6.00;99.90
41630;DHT22;27322;49.488;8.480;2022-11-20T01:44:55;6.00;99.90
41630;DHT22;27322;49.488;8.480;2022-11-20T01:52:39;5.90;99.90
41630;DHT22;27322;49.488;8.480;2022-11-20T01:55:13;5.90;99.90
41630;DHT22;27322;49.488;8.480;2022-11-20T01:57:40;5.90;99.90
41630;DHT22;27322;49.488;8.480;2022-11-20T02:00:12;5.90;99.90
41630;DHT22;27322;49.488;8.480;2022-11-20T02:02:41;5.90;99.90
41630;DHT22;27322;49.488;8.480;2022-11-20T02:05:16;5.90;99.90
41630;DHT22;27322;49.488;8.480;2022-11-20T02:07:42;6.00;99.90
41630;DHT22;27322;49.488;8.480;2022-11-20T02:10:07;6.00;99.90
41630;DHT22;27322;49.488;8.480;2022-11-20T02:12:33;6.00;99.90
41630;DHT22;27322;49.488;8.480;2022-11-20T02:15:17;6.00;99.90
41630;DHT22;27322;49.488;8.480;2022-11-20T02:17:43;6.00;99.90
41630;DHT22;27322;49.488;8.480;2022-11-20T02:20:09;5.90;99.90
41630;DHT22;27322;49.488;8.480;2022-11-20T02:22:47;6.00;99.90
41630;DHT22;27322;49.488;8.480;2022-11-20T02:25:15;5.90;99.90
41630;DHT22;27322;49.488;8.480;2022-11-20T02:27:40;5.90;99.90
41630;DHT22;27322;49.488;8.480;2022-11-20T02:30:06;5.90;99.90
41630;DHT22;27322;49.488;8.480;2022-11-20T02:32:37;5.90;99.90
41630;DHT22;27322;49.488;8.480;2022-11-20T02:37:48;5.90;99.90
41630;DHT22;27322;49.488;8.480;2022-11-20T02:40:15;5.90;99.90
41630;DHT22;27322;49.488;8.480;2022-11-20T02:42:40;6.00;99.90
41630;DHT22;27322;49.488;8.480;2022-11-20T02:45:06;5.90;99.90
41630;DHT22;27322;49.488;8.480;2022-11-20T02:47:33;5.90;99.90
41630;DHT22;27322;49.488;8.480;2022-11-20T02:49:59;5.90;99.90
41630;DHT22;27322;49.488;8.480;2022-11-20T02:52:25;6.00;99.90
41630;DHT22;27322;49.488;8.480;2022-11-20T02:54:51;5.90;99.90
41630;DHT22;27322;49.488;8.480;2022-11-20T02:57:17;5.90;99.90
41630;DHT22;27322;49.488;8.480;2022-11-20T02:59:43;5.90;99.90
41630;DHT22;27322;49.488;8.480;2022-11-20T03:02:08;5.90;99.90
41630;DHT22;27322;49.488;8.480;2022-11-20T03:04:34;5.90;99.90
41630;DHT22;27322;49.488;8.480;2022-11-20T03:06:59;6.00;99.90
41630;DHT22;27322;49.488;8.480;2022-11-20T03:09:25;6.00;99.90
41630;DHT22;27322;49.488;8.480;2022-11-20T03:11:51;6.00;99.90
41630;DHT22;27322;49.488;8.480;2022-11-20T03:14:16;6.00;99.90
41630;DHT22;27322;49.488;8.480;2022-11-20T03:16:42;5.90;99.90
41630;DHT22;27322;49.488;8.480;2022-11-20T03:19:08;6.00;99.90
41630;DHT22;27322;49.488;8.480;2022-11-20T03:21:34;6.00;99.90
41630;DHT22;27322;49.488;8.480;2022-11-20T03:24:00;6.00;99.90
41630;DHT22;27322;49.488;8.480;2022-11-20T03:26:26;6.00;99.90
41630;DHT22;27322;49.488;8.480;2022-11-20T03:28:54;6.00;99.90
41630;DHT22;27322;49.488;8.480;2022-11-20T03:31:25;6.00;99.90
41630;DHT22;27322;49.488;8.480;2022-11-20T03:33:51;6.00;99.90
41630;DHT22;27322;49.488;8.480;2022-11-20T03:36:19;6.00;99.90
41630;DHT22;27322;49.488;8.480;2022-11-20T03:38:46;6.00;99.90
41630;DHT22;27322;49.488;8.480;2022-11-20T03:41:14;6.00;99.90
41630;DHT22;27322;49.488;8.480;2022-11-20T03:43:40;6.00;99.90
41630;DHT22;27322;49.488;8.480;2022-11-20T03:46:06;6.00;99.90
41630;DHT22;27322;49.488;8.480;2022-11-20T03:48:32;6.00;99.90
41630;DHT22;27322;49.488;8.480;2022-11-20T03:53:36;6.00;99.90
41630;DHT22;27322;49.488;8.480;2022-11-20T03:56:02;6.00;99.90
41630;DHT22;27322;49.488;8.480;2022-11-20T03:58:28;6.00;99.90
41630;DHT22;27322;49.488;8.480;2022-11-20T04:00:54;6.00;99.90
41630;DHT22;27322;49.488;8.480;2022-11-20T04:03:19;6.00;99.90
41630;DHT22;27322;49.488;8.480;2022-11-20T04:05:45;6.00;99.90
41630;DHT22;27322;49.488;8.480;2022-11-20T04:08:11;6.00;99.90
41630;DHT22;27322;49.488;8.480;2022-11-20T04:10:36;6.00;99.90
41630;DHT22;27322;49.488;8.480;2022-11-20T04:13:02;6.00;99.90
41630;DHT22;27322;49.488;8.480;2022-11-20T04:15:28;6.00;99.90
41630;DHT22;27322;49.488;8.480;2022-11-20T04:17:54;6.00;99.90
41630;DHT22;27322;49.488;8.480;2022-11-20T04:20:19;6.10;99.90
41630;DHT22;27322;49.488;8.480;2022-11-20T04:22:45;6.10;99.90
41630;DHT22;27322;49.488;8.480;2022-11-20T04:25:10;6.00;99.90
41630;DHT22;27322;49.488;8.480;2022-11-20T04:27:36;6.10;99.90
41630;DHT22;27322;49.488;8.480;2022-11-20T04:30:02;6.10;99.90
41630;DHT22;27322;49.488;8.480;2022-11-20T04:32:28;6.00;99.90
41630;DHT22;27322;49.488;8.480;2022-11-20T04:34:53;6.10;99.90
41630;DHT22;27322;49.488;8.480;2022-11-20T04:37:19;6.10;99.90
41630;DHT22;27322;49.488;8.480;2022-11-20T04:39:44;6.10;99.90
41630;DHT22;27322;49.488;8.480;2022-11-20T04:42:10;6.10;99.90
41630;DHT22;27322;49.488;8.480;2022-11-20T04:44:54;6.10;99.90
41630;DHT22;27322;49.488;8.480;2022-11-20T04:47:20;6.10;99.90
41630;DHT22;27322;49.488;8.480;2022-11-20T04:49:46;6.10;99.90
41630;DHT22;27322;49.488;8.480;2022-11-20T04:52:11;6.10;99.90
41630;DHT22;27322;49.488;8.480;2022-11-20T04:54:37;6.10;99.90
41630;DHT22;27322;49.488;8.480;2022-11-20T04:57:03;6.10;99.90
41630;DHT22;27322;49.488;8.480;2022-11-20T04:59:28;6.10;99.90
41630;DHT22;27322;49.488;8.480;2022-11-20T05:01:54;6.10;99.90
41630;DHT22;27322;49.488;8.480;2022-11-20T05:04:19;6.10;99.90
41630;DHT22;27322;49.488;8.480;2022-11-20T05:06:45;6.10;99.90
41630;DHT22;27322;49.488;8.480;2022-11-20T05:09:12;6.10;99.90
41630;DHT22;27322;49.488;8.480;2022-11-20T05:11:38;6.10;99.90
41630;DHT22;27322;49.488;8.480;2022-11-20T05:14:03;6.10;99.90
41630;DHT22;27322;49.488;8.480;2022-11-20T05:16:29;6.10;99.90
41630;DHT22;27322;49.488;8.480;2022-11-20T05:18:55;6.10;99.90
41630;DHT22;27322;49.488;8.480;2022-11-20T05:21:21;6.10;99.90
41630;DHT22;27322;49.488;8.480;2022-11-20T05:23:47;6.10;99.90
41630;DHT22;27322;49.488;8.480;2022-11-20T05:26:16;6.20;99.90
41630;DHT22;27322;49.488;8.480;2022-11-20T05:28:42;6.20;99.90
41630;DHT22;27322;49.488;8.480;2022-11-20T05:31:13;6.20;99.90
41630;DHT22;27322;49.488;8.480;2022-11-20T05:33:42;6.20;99.90
41630;DHT22;27322;49.488;8.480;2022-11-20T05:36:09;6.20;99.90
41630;DHT22;27322;49.488;8.480;2022-11-20T05:38:35;6.20;99.90
41630;DHT22;27322;49.488;8.480;2022-11-20T05:41:05;6.20;99.90
41630;DHT22;27322;49.488;8.480;2022-11-20T05:43:35;6.20;99.90
41630;DHT22;27322;49.488;8.480;2022-11-20T05:46:01;6.20;99.90
41630;DHT22;27322;49.488;8.480;2022-11-20T05:48:27;6.30;99.90
41630;DHT22;27322;49.488;8.480;2022-11-20T05:50:52;6.30;99.90
41630;DHT22;27322;49.488;8.480;2022-11-20T05:53:18;6.30;99.90
41630;DHT22;27322;49.488;8.480;2022-11-20T05:55:43;6.30;99.90
41630;DHT22;27322;49.488;8.480;2022-11-20T05:58:09;6.30;99.90
41630;DHT22;27322;49.488;8.480;2022-11-20T06:00:35;6.30;99.90
41630;DHT22;27322;49.488;8.480;2022-11-20T06:03:01;6.30;99.90
41630;DHT22;27322;49.488;8.480;2022-11-20T06:05:27;6.30;99.90
41630;DHT22;27322;49.488;8.480;2022-11-20T06:07:52;6.30;99.90
41630;DHT22;27322;49.488;8.480;2022-11-20T06:10:18;6.30;99.90
41630;DHT22;27322;49.488;8.480;2022-11-20T06:12:43;6.30;99.90
41630;DHT22;27322;49.488;8.480;2022-11-20T06:15:09;6.30;99.90
41630;DHT22;27322;49.488;8.480;2022-11-20T06:17:35;6.30;99.90
41630;DHT22;27322;49.488;8.480;2022-11-20T06:20:01;6.30;99.90
41630;DHT22;27322;49.488;8.480;2022-11-20T06:22:26;6.30;99.90
41630;DHT22;27322;49.488;8.480;2022-11-20T06:24:52;6.30;99.90
41630;DHT22;27322;49.488;8.480;2022-11-20T06:27:17;6.30;99.90
41630;DHT22;27322;49.488;8.480;2022-11-20T06:29:43;6.30;99.90
41630;DHT22;27322;49.488;8.480;2022-11-20T06:32:09;6.30;99.90
41630;DHT22;27322;49.488;8.480;2022-11-20T06:34:34;6.30;99.90
41630;DHT22;27322;49.488;8.480;2022-11-20T06:37:00;6.30;99.90
41630;DHT22;27322;49.488;8.480;2022-11-20T06:39:25;6.40;99.90
41630;DHT22;27322;49.488;8.480;2022-11-20T06:41:51;6.30;99.90
41630;DHT22;27322;49.488;8.480;2022-11-20T06:44:16;6.40;99.90
41630;DHT22;27322;49.488;8.480;2022-11-20T06:46:42;6.40;99.90
41630;DHT22;27322;49.488;8.480;2022-11-20T06:49:07;6.40;99.90
41630;DHT22;27322;49.488;8.480;2022-11-20T06:51:33;6.40;99.90
41630;DHT22;27322;49.488;8.480;2022-11-20T06:53:59;6.40;99.90
41630;DHT22;27322;49.488;8.480;2022-11-20T06:56:26;6.40;99.90
41630;DHT22;27322;49.488;8.480;2022-11-20T06:58:51;6.40;99.90
41630;DHT22;27322;49.488;8.480;2022-11-20T07:01:17;6.40;99.90
41630;DHT22;27322;49.488;8.480;2022-11-20T07:03:43;6.40;99.90
41630;DHT22;27322;49.488;8.480;2022-11-20T07:06:09;6.40;99.90
41630;DHT22;27322;49.488;8.480;2022-11-20T07:08:35;6.40;99.90
41630;DHT22;27322;49.488;8.480;2022-11-20T07:11:03;6.40;99.90
41630;DHT22;27322;49.488;8.480;2022-11-20T07:13:30;6.40;99.90
41630;DHT22;27322;49.488;8.480;2022-11-20T07:16:00;6.50;99.90
41630;DHT22;27322;49.488;8.480;2022-11-20T07:18:26;6.50;99.90
41630;DHT22;27322;49.488;8.480;2022-11-20T07:20:52;6.50;99.90
41630;DHT22;27322;49.488;8.480;2022-11-20T07:23:17;6.50;99.90
41630;DHT22;27322;49.488;8.480;2022-11-20T07:25:43;6.50;99.90
41630;DHT22;27322;49.488;8.480;2022-11-20T07:28:08;6.50;99.90
41630;DHT22;27322;49.488;8.480;2022-11-20T07:30:35;6.50;99.90
41630;DHT22;27322;49.488;8.480;2022-11-20T07:33:01;6.60;99.90
41630;DHT22;27322;49.488;8.480;2022-11-20T07:35:27;6.60;99.90
41630;DHT22;27322;49.488;8.480;2022-11-20T07:37:52;6.60;99.90
41630;DHT22;27322;49.488;8.480;2022-11-20T07:40:18;6.60;99.90
41630;DHT22;27322;49.488;8.480;2022-11-20T07:42:48;6.60;99.90
41630;DHT22;27322;49.488;8.480;2022-11-20T07:45:14;6.60;99.90
41630;DHT22;27322;49.488;8.480;2022-11-20T07:47:40;6.60;99.90
41630;DHT22;27322;49.488;8.480;2022-11-20T07:50:06;6.70;99.90
41630;DHT22;27322;49.488;8.480;2022-11-20T07:52:32;6.60;99.90
41630;DHT22;27322;49.488;8.480;2022-11-20T07:55:01;6.60;99.90
41630;DHT22;27322;49.488;8.480;2022-11-20T07:57:27;6.70;99.90
41630;DHT22;27322;49.488;8.480;2022-11-20T07:59:52;6.70;99.90
41630;DHT22;27322;49.488;8.480;2022-11-20T08:02:18;6.70;99.90
41630;DHT22;27322;49.488;8.480;2022-11-20T08:04:43;6.70;99.90
41630;DHT22;27322;49.488;8.480;2022-11-20T08:07:09;6.80;99.90
41630;DHT22;27322;49.488;8.480;2022-11-20T08:09:34;6.80;99.90
41630;DHT22;27322;49.488;8.480;2022-11-20T08:12:00;6.80;99.90
41630;DHT22;27322;49.488;8.480;2022-11-20T08:14:44;6.90;99.90
41630;DHT22;27322;49.488;8.480;2022-11-20T08:17:10;6.90;99.90
41630;DHT22;27322;49.488;8.480;2022-11-20T08:19:35;6.90;99.90
41630;DHT22;27322;49.488;8.480;2022-11-20T08:22:01;7.00;99.90
41630;DHT22;27322;49.488;8.480;2022-11-20T08:24:26;7.00;99.90
41630;DHT22;27322;49.488;8.480;2022-11-20T08:26:52;7.00;99.90
41630;DHT22;27322;49.488;8.480;2022-11-20T08:29:18;7.00;99.90
41630;DHT22;27322;49.488;8.480;2022-11-20T08:31:44;7.00;99.90
41630;DHT22;27322;49.488;8.480;2022-11-20T08:34:09;7.00;99.90
41630;DHT22;27322;49.488;8.480;2022-11-20T08:36:35;7.00;99.90
41630;DHT22;27322;49.488;8.480;2022-11-20T08:39:01;7.00;99.90
41630;DHT22;27322;49.488;8.480;2022-11-20T08:41:29;7.10;99.90
41630;DHT22;27322;49.488;8.480;2022-11-20T08:43:59;7.10;99.90
41630;DHT22;27322;49.488;8.480;2022-11-20T08:46:26;7.10;99.90
41630;DHT22;27322;49.488;8.480;2022-11-20T08:48:53;7.10;99.90
41630;DHT22;27322;49.488;8.480;2022-11-20T08:51:19;7.10;99.90
41630;DHT22;27322;49.488;8.480;2022-11-20T08:53:46;7.10;99.90
41630;DHT22;27322;49.488;8.480;2022-11-20T08:56:13;7.10;99.90
41630;DHT22;27322;49.488;8.480;2022-11-20T08:58:39;7.10;99.90
41630;DHT22;27322;49.488;8.480;2022-11-20T09:01:05;7.20;99.90
41630;DHT22;27322;49.488;8.480;2022-11-20T09:03:31;7.20;99.90
41630;DHT22;27322;49.488;8.480;2022-11-20T09:06:01;7.20;99.90
41630;DHT22;27322;49.488;8.480;2022-11-20T09:08:27;7.20;99.90
41630;DHT22;27322;49.488;8.480;2022-11-20T09:10:54;7.10;99.90
41630;DHT22;27322;49.488;8.480;2022-11-20T09:13:21;7.10;99.90
41630;DHT22;27322;49.488;8.480;2022-11-20T09:15:47;7.20;99.90
41630;DHT22;27322;49.488;8.480;2022-11-20T09:18:13;7.10;99.90
41630;DHT22;27322;49.488;8.480;2022-11-20T09:20:38;7.10;99.90
41630;DHT22;27322;49.488;8.480;2022-11-20T09:23:04;7.10;99.90
41630;DHT22;27322;49.488;8.480;2022-11-20T09:25:30;7.10;99.90
41630;DHT22;27322;49.488;8.480;2022-11-20T09:27:56;7.10;99.90
41630;DHT22;27322;49.488;8.480;2022-11-20T09:30:22;7.10;99.90
41630;DHT22;27322;49.488;8.480;2022-11-20T09:32:48;7.00;99.90
41630;DHT22;27322;49.488;8.480;2022-11-20T09:35:13;7.10;99.90
41630;DHT22;27322;49.488;8.480;2022-11-20T09:37:40;7.00;99.90
41630;DHT22;27322;49.488;8.480;2022-11-20T09:40:06;7.00;99.90
41630;DHT22;27322;49.488;8.480;2022-11-20T09:42:45;7.00;99.90
41630;DHT22;27322;49.488;8.480;2022-11-20T09:53:34;7.00;99.90
41630;DHT22;27322;49.488;8.480;2022-11-20T09:56:03;7.00;99.90
41630;DHT22;27322;49.488;8.480;2022-11-20T09:58:32;7.00;99.90
41630;DHT22;27322;49.488;8.480;2022-11-20T10:01:10;7.00;99.90
41630;DHT22;27322;49.488;8.480;2022-11-20T10:06:12;7.00;99.90
41630;DHT22;27322;49.488;8.480;2022-11-20T10:08:47;7.00;99.90
41630;DHT22;27322;49.488;8.480;2022-11-20T10:11:39;7.00;99.90
41630;DHT22;27322;49.488;8.480;2022-11-20T10:15:05;7.10;99.90
41630;DHT22;27322;49.488;8.480;2022-11-20T10:17:13;7.10;99.90
41630;DHT22;27322;49.488;8.480;2022-11-20T10:19:45;7.10;99.90
41630;DHT22;27322;49.488;8.480;2022-11-20T10:30:29;7.10;99.90
41630;DHT22;27322;49.488;8.480;2022-11-20T10:33:19;7.00;99.90
41630;DHT22;27322;49.488;8.480;2022-11-20T10:36:14;7.10;99.90
41630;DHT22;27322;49.488;8.480;2022-11-20T10:38:46;7.10;99.90
41630;DHT22;27322;49.488;8.480;2022-11-20T10:41:28;7.10;99.90
41630;DHT22;27322;49.488;8.480;2022-11-20T10:47:03;7.10;99.90
41630;DHT22;27322;49.488;8.480;2022-11-20T10:49:31;7.20;99.90
41630;DHT22;27322;49.488;8.480;2022-11-20T10:52:17;7.20;99.90
41630;DHT22;27322;49.488;8.480;2022-11-20T11:00:13;7.30;99.90
41630;DHT22;27322;49.488;8.480;2022-11-20T11:02:48;7.30;99.90
41630;DHT22;27322;49.488;8.480;2022-11-20T11:07:49;7.30;99.90
41630;DHT22;27322;49.488;8.480;2022-11-20T11:10:19;7.30;99.90
41630;DHT22;27322;49.488;8.480;2022-11-20T11:12:47;7.30;99.90
41630;DHT22;27322;49.488;8.480;2022-11-20T11:17:51;7.40;99.90
41630;DHT22;27322;49.488;8.480;2022-11-20T11:20:20;7.30;99.90
41630;DHT22;27322;49.488;8.480;2022-11-20T11:22:51;7.40;99.90
41630;DHT22;27322;49.488;8.480;2022-11-20T11:25:38;7.40;99.90
41630;DHT22;27322;49.488;8.480;2022-11-20T11:28:19;7.50;99.90
41630;DHT22;27322;49.488;8.480;2022-11-20T11:30:45;7.50;99.90
41630;DHT22;27322;49.488;8.480;2022-11-20T11:33:25;7.60;99.90
41630;DHT22;27322;49.488;8.480;2022-11-20T11:35:53;7.70;99.90
41630;DHT22;27322;49.488;8.480;2022-11-20T11:38:40;7.80;99.90
41630;DHT22;27322;49.488;8.480;2022-11-20T11:41:09;7.90;99.90
41630;DHT22;27322;49.488;8.480;2022-11-20T11:43:36;8.00;99.90
41630;DHT22;27322;49.488;8.480;2022-11-20T11:46:32;8.00;99.90
41630;DHT22;27322;49.488;8.480;2022-11-20T11:57:26;8.20;99.90
41630;DHT22;27322;49.488;8.480;2022-11-20T12:02:53;8.30;99.90
41630;DHT22;27322;49.488;8.480;2022-11-20T12:15:43;8.50;99.90
41630;DHT22;27322;49.488;8.480;2022-11-20T12:18:15;8.60;99.90
41630;DHT22;27322;49.488;8.480;2022-11-20T12:20:45;8.60;99.90
41630;DHT22;27322;49.488;8.480;2022-11-20T12:25:54;8.80;99.90
41630;DHT22;27322;49.488;8.480;2022-11-20T12:29:00;8.80;99.90
41630;DHT22;27322;49.488;8.480;2022-11-20T12:34:10;8.90;99.90
41630;DHT22;27322;49.488;8.480;2022-11-20T12:39:39;8.90;99.90
41630;DHT22;27322;49.488;8.480;2022-11-20T12:42:23;8.90;99.90
41630;DHT22;27322;49.488;8.480;2022-11-20T12:50:52;8.80;99.90
41630;DHT22;27322;49.488;8.480;2022-11-20T12:59:06;8.90;99.90
41630;DHT22;27322;49.488;8.480;2022-11-20T13:06:39;8.80;99.90
41630;DHT22;27322;49.488;8.480;2022-11-20T13:09:10;8.80;99.90
41630;DHT22;27322;49.488;8.480;2022-11-20T13:14:28;8.80;99.90
41630;DHT22;27322;49.488;8.480;2022-11-20T13:17:16;8.80;99.90
41630;DHT22;27322;49.488;8.480;2022-11-20T13:19:52;8.80;99.90
41630;DHT22;27322;49.488;8.480;2022-11-20T13:22:31;8.80;99.90
41630;DHT22;27322;49.488;8.480;2022-11-20T13:25:30;8.80;99.90
41630;DHT22;27322;49.488;8.480;2022-11-20T13:27:57;8.80;99.90
41630;DHT22;27322;49.488;8.480;2022-11-20T13:30:24;8.80;99.90
41630;DHT22;27322;49.488;8.480;2022-11-20T13:36:00;8.90;99.90
41630;DHT22;27322;49.488;8.480;2022-11-20T13:38:26;8.90;99.90
41630;DHT22;27322;49.488;8.480;2022-11-20T13:40:55;8.90;99.90
41630;DHT22;27322;49.488;8.480;2022-11-20T13:43:40;8.90;99.90
41630;DHT22;27322;49.488;8.480;2022-11-20T13:46:08;8.90;99.90
41630;DHT22;27322;49.488;8.480;2022-11-20T13:48:39;9.00;99.90
41630;DHT22;27322;49.488;8.480;2022-11-20T13:53:55;9.00;99.90
41630;DHT22;27322;49.488;8.480;2022-11-20T14:02:00;9.00;99.90
41630;DHT22;27322;49.488;8.480;2022-11-20T14:04:29;9.00;99.90
41630;DHT22;27322;49.488;8.480;2022-11-20T14:06:57;9.00;99.90
41630;DHT22;27322;49.488;8.480;2022-11-20T14:09:27;9.10;99.90
41630;DHT22;27322;49.488;8.480;2022-11-20T14:11:53;9.00;99.90
41630;DHT22;27322;49.488;8.480;2022-11-20T14:14:24;9.00;99.90
41630;DHT22;27322;49.488;8.480;2022-11-20T14:16:51;9.00;99.90
41630;DHT22;27322;49.488;8.480;2022-11-20T14:21:49;9.00;99.90
41630;DHT22;27322;49.488;8.480;2022-11-20T14:24:23;9.00;99.90
41630;DHT22;27322;49.488;8.480;2022-11-20T14:26:50;9.00;99.90
41630;DHT22;27322;49.488;8.480;2022-11-20T14:29:27;9.00;99.90
41630;DHT22;27322;49.488;8.480;2022-11-20T14:31:54;8.90;99.90
41630;DHT22;27322;49.488;8.480;2022-11-20T14:34:29;8.90;99.90
41630;DHT22;27322;49.488;8.480;2022-11-20T14:36:59;8.90;99.90
41630;DHT22;27322;49.488;8.480;2022-11-20T14:41:54;8.80;99.90
41630;DHT22;27322;49.488;8.480;2022-11-20T14:44:25;8.70;99.90
41630;DHT22;27322;49.488;8.480;2022-11-20T14:46:52;8.70;99.90
41630;DHT22;27322;49.488;8.480;2022-11-20T14:49:18;8.70;99.90
41630;DHT22;27322;49.488;8.480;2022-11-20T14:51:44;8.70;99.90
41630;DHT22;27322;49.488;8.480;2022-11-20T14:54:19;8.60;99.90
41630;DHT22;27322;49.488;8.480;2022-11-20T14:56:58;8.70;99.90
41630;DHT22;27322;49.488;8.480;2022-11-20T14:59:29;8.70;99.90
41630;DHT22;27322;49.488;8.480;2022-11-20T15:02:04;8.60;99.90
41630;DHT22;27322;49.488;8.480;2022-11-20T15:04:30;8.60;99.90
41630;DHT22;27322;49.488;8.480;2022-11-20T15:06:57;8.60;99.90
41630;DHT22;27322;49.488;8.480;2022-11-20T15:09:24;8.60;99.90
41630;DHT22;27322;49.488;8.480;2022-11-20T15:11:56;8.60;99.90
41630;DHT22;27322;49.488;8.480;2022-11-20T15:14:23;8.60;99.90
41630;DHT22;27322;49.488;8.480;2022-11-20T15:16:50;8.60;99.90
41630;DHT22;27322;49.488;8.480;2022-11-20T15:19:24;8.60;99.90
41630;DHT22;27322;49.488;8.480;2022-11-20T15:21:50;8.50;99.90
41630;DHT22;27322;49.488;8.480;2022-11-20T15:24:16;8.50;99.90
41630;DHT22;27322;49.488;8.480;2022-11-20T15:26:42;8.50;99.90
41630;DHT22;27322;49.488;8.480;2022-11-20T15:29:10;8.50;99.90
41630;DHT22;27322;49.488;8.480;2022-11-20T15:31:37;8.50;99.90
41630;DHT22;27322;49.488;8.480;2022-11-20T15:34:11;8.50;99.90
41630;DHT22;27322;49.488;8.480;2022-11-20T15:36:41;8.50;99.90
41630;DHT22;27322;49.488;8.480;2022-11-20T15:39:08;8.50;99.90
41630;DHT22;27322;49.488;8.480;2022-11-20T15:41:34;8.50;99.90
41630;DHT22;27322;49.488;8.480;2022-11-20T15:44:00;8.50;99.90
41630;DHT22;27322;49.488;8.480;2022-11-20T15:46:28;8.50;99.90
41630;DHT22;27322;49.488;8.480;2022-11-20T15:48:56;8.50;99.90
41630;DHT22;27322;49.488;8.480;2022-11-20T15:51:46;8.40;99.90
41630;DHT22;27322;49.488;8.480;2022-11-20T15:54:14;8.50;99.90
41630;DHT22;27322;49.488;8.480;2022-11-20T15:56:41;8.40;99.90
41630;DHT22;27322;49.488;8.480;2022-11-20T15:59:06;8.40;99.90
41630;DHT22;27322;49.488;8.480;2022-11-20T16:01:32;8.40;99.90
41630;DHT22;27322;49.488;8.480;2022-11-20T16:03:58;8.40;99.90
41630;DHT22;27322;49.488;8.480;2022-11-20T16:06:24;8.40;99.90
41630;DHT22;27322;49.488;8.480;2022-11-20T16:08:49;8.40;99.90
41630;DHT22;27322;49.488;8.480;2022-11-20T16:11:16;8.40;99.90
41630;DHT22;27322;49.488;8.480;2022-11-20T16:13:43;8.40;99.90
41630;DHT22;27322;49.488;8.480;2022-11-20T16:16:37;8.50;99.90
41630;DHT22;27322;49.488;8.480;2022-11-20T16:19:06;8.40;99.90
41630;DHT22;27322;49.488;8.480;2022-11-20T16:21:31;8.40;99.90
41630;DHT22;27322;49.488;8.480;2022-11-20T16:24:04;8.40;99.90
41630;DHT22;27322;49.488;8.480;2022-11-20T16:26:31;8.40;99.90
41630;DHT22;27322;49.488;8.480;2022-11-20T16:28:59;8.40;99.90
41630;DHT22;27322;49.488;8.480;2022-11-20T16:31:24;8.40;99.90
41630;DHT22;27322;49.488;8.480;2022-11-20T16:33:51;8.40;99.90
41630;DHT22;27322;49.488;8.480;2022-11-20T16:36:17;8.40;99.90
41630;DHT22;27322;49.488;8.480;2022-11-20T16:38:43;8.50;99.90
41630;DHT22;27322;49.488;8.480;2022-11-20T16:41:09;8.50;99.90
41630;DHT22;27322;49.488;8.480;2022-11-20T16:43:49;8.50;99.90
41630;DHT22;27322;49.488;8.480;2022-11-20T16:46:17;8.50;99.90
41630;DHT22;27322;49.488;8.480;2022-11-20T16:48:43;8.50;99.90
41630;DHT22;27322;49.488;8.480;2022-11-20T16:51:10;8.50;99.90
41630;DHT22;27322;49.488;8.480;2022-11-20T16:53:36;8.50;99.90
41630;DHT22;27322;49.488;8.480;2022-11-20T16:56:13;8.50;99.90
41630;DHT22;27322;49.488;8.480;2022-11-20T16:58:40;8.50;99.90
41630;DHT22;27322;49.488;8.480;2022-11-20T17:01:07;8.50;99.90
41630;DHT22;27322;49.488;8.480;2022-11-20T17:03:36;8.50;99.90
41630;DHT22;27322;49.488;8.480;2022-11-20T17:06:09;8.50;99.90
41630;DHT22;27322;49.488;8.480;2022-11-20T17:08:34;8.50;99.90
41630;DHT22;27322;49.488;8.480;2022-11-20T17:11:07;8.50;99.90
41630;DHT22;27322;49.488;8.480;2022-11-20T17:13:33;8.50;99.90
41630;DHT22;27322;49.488;8.480;2022-11-20T17:16:07;8.50;99.90
41630;DHT22;27322;49.488;8.480;2022-11-20T17:18:33;8.50;99.90
41630;DHT22;27322;49.488;8.480;2022-11-20T17:20:59;8.50;99.90
41630;DHT22;27322;49.488;8.480;2022-11-20T17:23:33;8.50;99.90
41630;DHT22;27322;49.488;8.480;2022-11-20T17:26:11;8.50;99.90
41630;DHT22;27322;49.488;8.480;2022-11-20T17:28:39;8.50;99.90
41630;DHT22;27322;49.488;8.480;2022-11-20T17:31:07;8.40;99.90
41630;DHT22;27322;49.488;8.480;2022-11-20T17:33:34;8.50;99.90
41630;DHT22;27322;49.488;8.480;2022-11-20T17:36:00;8.40;99.90
41630;DHT22;27322;49.488;8.480;2022-11-20T17:38:26;8.50;99.90
41630;DHT22;27322;49.488;8.480;2022-11-20T17:40:52;8.40;99.90
41630;DHT22;27322;49.488;8.480;2022-11-20T17:43:18;8.50;99.90